Hastain, Missouri
Current Conditions -  °F | °C
As of 7:55 AM on Friday 24 Oct 2014 (Local Time) from KH21 Reporting Station
Haze Haze  
Wind Chill: 13°   Ceiling: Unl
Heat Index: 13°   Visibility: 2.5mi
Dew Point: 12°   Wind: 5mph
Humidity: 94%   Direction: 140°SE
Pressure: 30.11"   Gusts: NA
Location:  38.1656°N, 93.1481°W
Report Text: KH21 241255Z AUTO 14004KT 2 1/2SM BR SCT018 13/12 A3011 RMK AO2
Loading
Personal Weather Stations






























Interactive Weather Map
Tropical Storm Tracking
New forecast layout! Learn more

10-Day Weather Forecast

Advertisements
Track Severe Weather on mobile